HomeShort term forecast

Short term forecast

Graphical weather forecast for the next 48 hours for Montreal:

Short term forecast

This weather forecast is automatically refreshed every 3 hours.

Hourly Experimental Forecast for the next 48 hours

Overall summary: Rain this evening.

 Date & Hour   Temp   Feel   Baro   Hum   Speed & Bearing   Wind Gust   Precip.%   Precip.   Visibility   Cloud cover   Conditions 
 30/05/2020 - 22:00  12.6°C  12.6°C  1011.3 hPa  77%  20.5 km/h   36.2 km/h  100%  0.97 mm/h  16.1km  91%  Rain 
 30/05/2020 - 23:00  11.7°C  11.7°C  1012.5 hPa  73%  19.7 km/h   32.6 km/h  9%  0.02 mm/h  16.1km  77%  Mostly Cloudy 
 31/05/2020 - 00:00  11.0°C  11.0°C  1013.5 hPa  69%  18.7 km/h   31.3 km/h  8%  0.04 mm/h  16.1km  75%  Mostly Cloudy 
 31/05/2020 - 01:00  10.1°C  10.1°C  1014.2 hPa  67%  18.0 km/h   31.3 km/h  6%  0.05 mm/h  16.1km  67%  Mostly Cloudy 
 31/05/2020 - 02:00  9.2°C  6.7°C  1015.0 hPa  66%  17.4 km/h   31.8 km/h  2%  0.02 mm/h  16.1km  47%  Partly Cloudy 
 31/05/2020 - 03:00  8.3°C  5.6°C  1015.7 hPa  65%  16.5 km/h   30.6 km/h  2%  0.02 mm/h  16.1km  26%  Clear 
 31/05/2020 - 04:00  7.4°C  4.8°C  1016.3 hPa  66%  14.9 km/h   29.7 km/h  2%  0.01 mm/h  16.1km  19%  Clear 
 31/05/2020 - 05:00  6.8°C  4.0°C  1017.1 hPa  65%  15.0 km/h   30.6 km/h  2%  0.03 mm/h  16.1km  22%  Clear 
 31/05/2020 - 06:00  6.6°C  3.7°C  1017.7 hPa  60%  15.8 km/h   33.4 km/h  1%  0.03 mm/h  16.1km  12%  Clear 
 31/05/2020 - 07:00  7.1°C  4.1°C  1018.3 hPa  53%  16.6 km/h   33.7 km/h  1%  0.03 mm/h  16.1km  6%  Clear 
 31/05/2020 - 08:00  7.8°C  5.0°C  1018.5 hPa  48%  17.5 km/h   33.0 km/h  0%  --  16.1km  5%  Clear 
 31/05/2020 - 09:00  8.8°C  6.0°C  1018.9 hPa  43%  19.0 km/h   34.9 km/h  0%  --  16.1km  3%  Clear 
 31/05/2020 - 10:00  9.6°C  6.8°C  1019.4 hPa  38%  20.9 km/h   36.5 km/h  1%  0.01 mm/h  16.1km  1%  Clear 
 31/05/2020 - 11:00  10.8°C  10.8°C  1019.6 hPa  33%  22.8 km/h   38.6 km/h  1%  0.01 mm/h  16.1km  0%  Clear 
 31/05/2020 - 12:00  11.5°C  11.5°C  1019.2 hPa  32%  23.1 km/h   38.0 km/h  0%  --  16.1km  14%  Clear 
 31/05/2020 - 13:00  12.0°C  12.0°C  1018.2 hPa  31%  22.7 km/h   36.6 km/h  0%  --  16.1km  35%  Partly Cloudy 
 31/05/2020 - 14:00  12.9°C  12.9°C  1017.7 hPa  31%  22.5 km/h   35.4 km/h  0%  --  16.1km  55%  Partly Cloudy 
 31/05/2020 - 15:00  13.5°C  13.5°C  1017.5 hPa  31%  22.9 km/h   34.9 km/h  1%  0.01 mm/h  16.1km  72%  Mostly Cloudy 
 31/05/2020 - 16:00  14.1°C  14.1°C  1017.6 hPa  32%  23.3 km/h   34.5 km/h  1%  0.05 mm/h  16.1km  87%  Mostly Cloudy 
 31/05/2020 - 17:00  14.2°C  14.2°C  1017.6 hPa  34%  22.9 km/h   33.5 km/h  2%  0.08 mm/h  16.1km  96%  Overcast 
 31/05/2020 - 18:00  14.0°C  14.0°C  1017.8 hPa  38%  21.0 km/h   31.2 km/h  2%  0.06 mm/h  16.1km  84%  Mostly Cloudy 
 31/05/2020 - 19:00  13.3°C  13.3°C  1018.2 hPa  41%  18.2 km/h   28.2 km/h  2%  0.05 mm/h  16.1km  63%  Mostly Cloudy 
 31/05/2020 - 20:00  12.5°C  12.5°C  1018.5 hPa  45%  15.6 km/h   25.7 km/h  3%  0.06 mm/h  16.1km  46%  Partly Cloudy 
 31/05/2020 - 21:00  11.4°C  11.4°C  1018.6 hPa  49%  13.4 km/h   24.6 km/h  3%  0.04 mm/h  16.1km  38%  Partly Cloudy 
 31/05/2020 - 22:00  10.4°C  10.4°C  1018.6 hPa  55%  11.3 km/h   23.9 km/h  3%  0.01 mm/h  16.1km  34%  Partly Cloudy 
 31/05/2020 - 23:00  9.5°C  8.1°C  1018.7 hPa  60%  9.9 km/h   22.8 km/h  3%  0.01 mm/h  16.1km  33%  Partly Cloudy 
 01/06/2020 - 00:00  8.9°C  7.4°C  1018.7 hPa  62%  9.7 km/h   21.2 km/h  4%  0.02 mm/h  16.1km  46%  Partly Cloudy 
 01/06/2020 - 01:00  8.4°C  6.7°C  1018.5 hPa  64%  10.3 km/h   19.6 km/h  5%  0.05 mm/h  16.1km  65%  Mostly Cloudy 
 01/06/2020 - 02:00  8.0°C  6.1°C  1018.5 hPa  67%  10.6 km/h   18.3 km/h  6%  0.06 mm/h  16.1km  77%  Mostly Cloudy 
 01/06/2020 - 03:00  7.3°C  5.4°C  1018.6 hPa  71%  10.1 km/h   17.0 km/h  4%  0.04 mm/h  16.1km  74%  Mostly Cloudy 
 01/06/2020 - 04:00  6.6°C  4.8°C  1018.9 hPa  74%  9.3 km/h   15.8 km/h  3%  0.01 mm/h  16.1km  63%  Mostly Cloudy 
 01/06/2020 - 05:00  6.3°C  4.5°C  1019.3 hPa  75%  8.9 km/h   15.0 km/h  0%  --  16.1km  52%  Partly Cloudy 
 01/06/2020 - 06:00  7.0°C  5.2°C  1019.9 hPa  71%  9.1 km/h   15.2 km/h  0%  --  16.1km  41%  Partly Cloudy 
 01/06/2020 - 07:00  8.1°C  6.4°C  1020.6 hPa  64%  10.0 km/h   16.4 km/h  0%  --  16.1km  27%  Clear 
 01/06/2020 - 08:00  9.6°C  7.9°C  1021.0 hPa  58%  11.2 km/h   17.8 km/h  2%  0.01 mm/h  16.1km  17%  Clear 
 01/06/2020 - 09:00  11.0°C  11.0°C  1020.8 hPa  51%  12.4 km/h   18.6 km/h  0%  --  16.1km  20%  Clear 
 01/06/2020 - 10:00  12.4°C  12.4°C  1020.2 hPa  43%  13.7 km/h   19.0 km/h  0%  --  16.1km  26%  Clear 
 01/06/2020 - 11:00  13.6°C  13.6°C  1019.7 hPa  38%  14.9 km/h   19.6 km/h  0%  --  16.1km  31%  Clear 
 01/06/2020 - 12:00  14.3°C  14.3°C  1019.2 hPa  36%  16.2 km/h   20.6 km/h  0%  --  16.1km  35%  Partly Cloudy 
 01/06/2020 - 13:00  15.2°C  15.2°C  1018.5 hPa  35%  17.5 km/h   21.8 km/h  0%  --  16.1km  40%  Partly Cloudy 
 01/06/2020 - 14:00  16.0°C  16.0°C  1017.9 hPa  36%  18.2 km/h   22.8 km/h  2%  0.01 mm/h  16.1km  44%  Partly Cloudy 
 01/06/2020 - 15:00  16.4°C  16.4°C  1017.3 hPa  37%  17.5 km/h   23.6 km/h  0%  --  16.1km  55%  Partly Cloudy 
 01/06/2020 - 16:00  16.2°C  16.2°C  1016.4 hPa  40%  16.0 km/h   24.3 km/h  2%  0.01 mm/h  16.1km  69%  Mostly Cloudy 
 01/06/2020 - 17:00  15.7°C  15.7°C  1016.0 hPa  44%  14.5 km/h   24.4 km/h  3%  0.02 mm/h  16.1km  75%  Mostly Cloudy 
 01/06/2020 - 18:00  15.4°C  15.4°C  1015.9 hPa  47%  12.5 km/h   23.2 km/h  5%  0.05 mm/h  16.1km  69%  Mostly Cloudy 
 01/06/2020 - 19:00  15.3°C  15.3°C  1015.7 hPa  49%  10.3 km/h   21.5 km/h  9%  0.17 mm/h  16.1km  57%  Partly Cloudy 
 01/06/2020 - 20:00  14.7°C  14.7°C  1015.7 hPa  51%  8.7 km/h   20.9 km/h  10%  0.25 mm/h  14.2km  47%  Partly Cloudy 
 01/06/2020 - 21:00  13.8°C  13.8°C  1015.8 hPa  55%  8.7 km/h   22.9 km/h  5%  0.16 mm/h  16.1km  43%  Partly Cloudy 

 

Past weather and reports

Past weatherFind in this section the past weather conditions, weather archive, graphics, reports and statistics.

Current conditions

Current weather condition for MontrealAll you need to know about the current weather conditions for Montreal. Weather data is updated every 10 minutes.

Weather forecast

Current Montreal weatherSince 2004, celinium.com website has provided accurate weather forecast for Montreal's island.